Time;durP1;ratioP1;P1;durP2;ratioP2;P2;SDS_P1;SDS_P2;PMS_P1;PMS_P2;Temp;Humidity;BMP_temperature;BMP_pressure;BME280_temperature;BME280_humidity;BME280_pressure;Samples;Min_cycle;Max_cycle;Signal;HPM_P1;HPM_P2
2023/02/21 02:14:21;;;;;;;;;59.40;48.80;;;;;10.90;59.80;101611.41;2071947;28;45617;-66
2023/02/21 02:15:39;;;;;;;;;59.40;49.20;;;;;10.91;59.58;101615.81;2077258;28;46732;-67
2023/02/21 02:16:47;;;;;;;;;61.20;49.40;;;;;10.89;59.57;101610.50;2080071;28;46431;-67
2023/02/21 02:17:56;;;;;;;;;61.40;49.80;;;;;10.88;59.63;101611.41;2079973;28;46622;-67
2023/02/21 02:19:22;;;;;;;;;55.80;45.80;;;;;10.87;59.73;101614.97;2079545;28;46945;-67
2023/02/21 02:20:53;;;;;;;;;58.40;48.80;;;;;10.85;59.39;101606.13;2072775;28;46030;-67
2023/02/21 02:21:56;;;;;;;;;60.80;50.00;;;;;10.85;59.37;101602.59;2078466;28;45887;-66
2023/02/21 02:23:10;;;;;;;;;58.40;48.80;;;;;10.83;59.48;101602.63;2077736;28;46820;-67
2023/02/21 02:24:22;;;;;;;;;59.60;48.20;;;;;10.85;59.59;101607.91;2080039;28;46747;-66
2023/02/21 02:25:48;;;;;;;;;55.80;44.80;;;;;10.86;59.50;101607.88;2079574;28;45416;-67
2023/02/21 02:26:59;;;;;;;;;59.80;49.40;;;;;10.86;59.52;101599.91;2073402;28;46652;-67
2023/02/21 02:27:59;;;;;;;;;65.40;52.20;;;;;10.87;59.40;101595.50;2075155;28;46599;-66
2023/02/21 02:29:15;;;;;;;;;62.25;50.50;;;;;10.84;59.37;101599.06;2087462;28;46352;-67
2023/02/21 02:30:27;;;;;;;;;62.40;50.60;;;;;10.84;59.20;101600.84;2084196;28;46679;-66
2023/02/21 02:31:46;;;;;;;;;59.20;49.80;;;;;10.82;59.38;101592.00;2077454;28;46928;-67
2023/02/21 02:33:11;;;;;;;;;62.00;49.60;;;;;10.79;59.37;101594.66;2079913;28;45815;-67
2023/02/21 02:34:39;;;;;;;;;59.20;47.80;;;;;10.79;59.19;101592.00;2078893;28;46124;-67
2023/02/21 02:35:47;;;;;;;;;58.00;47.80;;;;;10.77;59.29;101586.72;2079054;28;46020;-66
2023/02/21 02:36:55;;;;;;;;;61.00;49.80;;;;;10.77;59.26;101580.53;2071887;28;46881;-66
2023/02/21 02:38:02;;;;;;;;;66.00;53.60;;;;;10.75;59.50;101583.19;2077365;28;46694;-68
2023/02/21 02:39:20;;;;;;;;;63.00;50.80;;;;;10.74;59.36;101580.56;2079381;28;46490;-66
2023/02/21 02:40:35;;;;;;;;;65.40;51.40;;;;;10.73;59.51;101582.34;2072589;28;46443;-65
2023/02/21 02:41:57;;;;;;;;;63.40;50.60;;;;;10.73;59.34;101579.69;2076904;28;45887;-67
2023/02/21 02:43:27;;;;;;;;;64.00;53.00;;;;;10.72;59.68;101583.25;2079162;28;46418;-67
2023/02/21 02:44:38;;;;;;;;;63.60;52.40;;;;;10.71;59.53;101583.25;2079307;28;46060;-67
2023/02/21 02:45:55;;;;;;;;;61.60;50.60;;;;;10.71;59.70;101577.94;2081210;28;46940;-66
2023/02/21 02:46:59;;;;;;;;;50.20;43.40;;;;;10.71;59.69;101580.59;2082413;28;47032;-66
2023/02/21 02:48:22;;;;;;;;;62.60;51.00;;;;;10.68;59.69;101573.56;2082473;28;46755;-67
2023/02/21 02:49:26;;;;;;;;;64.60;51.60;;;;;10.69;59.76;101574.44;2079324;28;47855;-67
2023/02/21 02:50:28;;;;;;;;;54.60;45.80;;;;;10.68;59.50;101578.84;2079936;28;45180;-67
2023/02/21 02:51:29;;;;;;;;;53.00;44.60;;;;;10.68;59.71;101572.66;2079449;28;47015;-67
2023/02/21 02:52:30;;;;;;;;;60.80;49.00;;;;;10.68;59.62;101577.97;2077815;28;45770;-67
2023/02/21 02:53:30;;;;;;;;;67.50;54.00;;;;;10.68;59.48;101576.19;2074674;28;45890;-67
2023/02/21 02:54:31;;;;;;;;;62.25;50.00;;;;;10.66;59.73;101575.31;2075562;28;46801;-67
2023/02/21 02:55:40;;;;;;;;;65.00;53.00;;;;;10.68;59.66;101567.34;2085253;28;46162;-66
2023/02/21 02:56:41;;;;;;;;;66.20;52.20;;;;;10.68;59.50;101567.34;2078554;28;46659;-66
2023/02/21 02:57:47;;;;;;;;;61.75;51.00;;;;;10.70;59.45;101570.88;2087109;28;46452;-67
2023/02/21 02:58:56;;;;;;;;;63.60;51.60;;;;;10.70;59.53;101570.88;2079011;28;46623;-67
2023/02/21 02:59:57;;;;;;;;;61.60;50.20;;;;;10.70;59.75;101571.75;2076819;28;46115;-66
2023/02/21 03:01:27;;;;;;;;;61.00;49.00;;;;;10.71;59.58;101567.31;2079609;28;46132;-66
2023/02/21 03:02:47;;;;;;;;;62.80;50.20;;;;;10.72;59.72;101569.97;2070144;28;46538;-65
2023/02/21 03:04:00;;;;;;;;;61.40;50.00;;;;;10.73;59.77;101571.72;2070270;28;46697;-68
2023/02/21 03:05:12;;;;;;;;;61.20;48.80;;;;;10.72;59.73;101559.34;2070325;28;45899;-67
2023/02/21 03:06:38;;;;;;;;;66.60;53.00;;;;;10.73;59.55;101568.19;2066932;28;46456;-67
2023/02/21 03:07:54;;;;;;;;;64.40;52.20;;;;;10.71;59.70;101564.66;2069878;28;46409;-68
2023/02/21 03:09:18;;;;;;;;;59.20;49.40;;;;;10.71;59.68;101568.19;2070887;28;46187;-67
2023/02/21 03:10:27;;;;;;;;;63.00;51.00;;;;;10.70;59.51;101569.09;2070210;28;46703;-68
2023/02/21 03:11:29;;;;;;;;;64.00;52.00;;;;;10.69;59.80;101564.69;2070313;28;46143;-66
2023/02/21 03:12:39;;;;;;;;;65.00;52.60;;;;;10.68;59.59;101560.28;2069610;28;46636;-67
2023/02/21 03:13:43;;;;;;;;;62.00;50.40;;;;;10.67;59.74;101561.16;2069860;28;46847;-69
2023/02/21 03:14:56;;;;;;;;;63.60;53.20;;;;;10.67;59.58;101562.91;2069908;28;46977;-68
2023/02/21 03:15:59;;;;;;;;;63.60;51.00;;;;;10.68;59.54;101556.75;2069811;28;46597;-68
2023/02/21 03:17:09;;;;;;;;;64.40;50.80;;;;;10.66;59.54;101547.88;2070306;28;46659;-69
2023/02/21 03:18:17;;;;;;;;;61.60;50.80;;;;;10.65;59.53;101551.44;2069035;28;46936;-68
2023/02/21 03:19:25;;;;;;;;;65.20;52.80;;;;;10.66;59.79;101553.19;2061474;28;46475;-67
2023/02/21 03:20:28;;;;;;;;;59.80;49.60;;;;;10.64;59.72;101545.25;2062870;28;46551;-68
2023/02/21 03:21:34;;;;;;;;;52.60;43.20;;;;;10.65;59.59;101557.63;2067741;28;46945;-68
2023/02/21 03:22:35;;;;;;;;;64.40;51.40;;;;;10.64;59.59;101550.56;2065269;28;45945;-68
2023/02/21 03:23:38;;;;;;;;;61.00;50.50;;;;;10.64;59.85;101555.88;2061905;28;46351;-66
2023/02/21 03:24:43;;;;;;;;;66.60;53.80;;;;;10.64;59.91;101547.91;2062101;28;45978;-66
2023/02/21 03:25:45;;;;;;;;;60.40;49.80;;;;;10.63;59.69;101558.53;2061960;28;46363;-67
2023/02/21 03:26:50;;;;;;;;;64.80;53.00;;;;;10.63;59.52;101550.56;2054587;28;46697;-67
2023/02/21 03:27:53;;;;;;;;;60.80;50.80;;;;;10.61;59.73;101558.56;2069762;28;46779;-65
2023/02/21 03:28:54;;;;;;;;;64.20;52.20;;;;;10.60;59.30;101554.13;2069878;28;47003;-67
2023/02/21 03:29:57;;;;;;;;;60.75;51.00;;;;;10.59;59.41;101550.59;2070233;28;46545;-66
2023/02/21 03:30:59;;;;;;;;;66.20;52.60;;;;;10.58;59.42;101551.50;2069844;28;47169;-66
2023/02/21 03:33:10;;;;;;;;;66.60;53.20;;;;;10.57;59.44;101554.16;2065753;28;45931;-66
2023/02/21 03:34:11;;;;;;;;;66.00;52.75;;;;;10.55;59.31;101559.50;2066341;28;46510;-66
2023/02/21 03:35:12;;;;;;;;;66.50;54.25;;;;;10.56;59.42;101555.06;2068828;28;46587;-65
2023/02/21 03:36:14;;;;;;;;;66.80;54.40;;;;;10.55;59.63;101555.97;2061852;28;46309;-66
2023/02/21 03:37:44;;;;;;;;;68.60;55.00;;;;;10.55;59.42;101548.88;2054682;28;45683;-66
2023/02/21 03:38:44;;;;;;;;;64.60;52.20;;;;;10.54;59.20;101548.88;2064210;28;45711;-67
2023/02/21 03:39:44;;;;;;;;;70.00;54.75;;;;;10.54;59.19;101546.22;2072267;28;46820;-66
2023/02/21 03:40:45;;;;;;;;;65.25;52.25;;;;;10.52;59.57;101546.22;2091971;28;46621;-66
2023/02/21 03:41:45;;;;;;;;;68.00;53.50;;;;;10.53;59.35;101549.75;2088205;28;47109;-66
2023/02/21 03:42:45;;;;;;;;;67.75;55.00;;;;;10.52;59.15;101540.03;2079027;28;46487;-66
2023/02/21 03:43:46;;;;;;;;;63.25;51.75;;;;;10.53;59.22;101550.63;2088823;28;46847;-68
2023/02/21 03:44:46;;;;;;;;;66.25;53.25;;;;;10.55;59.02;101546.22;2086425;28;45412;-66
2023/02/21 03:45:46;;;;;;;;;66.50;54.25;;;;;10.55;59.00;101551.53;2079193;28;46428;-67
2023/02/21 03:46:47;;;;;;;;;65.00;53.00;;;;;10.54;59.02;101551.50;2075317;28;46911;-68
2023/02/21 03:47:47;;;;;;;;;64.75;52.00;;;;;10.53;58.77;101541.78;2076867;28;46596;-67
2023/02/21 03:48:47;;;;;;;;;68.75;55.50;;;;;10.53;59.13;101545.34;2082971;28;46253;-66
2023/02/21 03:49:48;;;;;;;;;69.50;55.75;;;;;10.52;58.78;101548.88;2080561;28;46504;-67
2023/02/21 03:50:48;;;;;;;;;62.25;51.00;;;;;10.52;59.04;101551.53;2077554;28;45554;-67
2023/02/21 03:51:48;;;;;;;;;68.25;56.25;;;;;10.51;58.57;101547.13;2081761;28;47111;-67
2023/02/21 03:52:49;;;;;;;;;68.50;55.00;;;;;10.51;58.92;101543.59;2079266;28;46268;-67
2023/02/21 03:53:49;;;;;;;;;67.75;55.00;;;;;10.50;58.76;101544.47;2092649;28;45100;-66
2023/02/21 03:54:49;;;;;;;;;61.75;51.75;;;;;10.50;58.94;101541.81;2089371;28;45381;-67
2023/02/21 03:55:50;;;;;;;;;66.50;54.00;;;;;10.49;58.70;101542.72;2079592;28;45702;-66
2023/02/21 03:56:50;;;;;;;;;70.25;56.75;;;;;10.47;58.59;101544.53;2079786;28;45187;-67
2023/02/21 03:57:50;;;;;;;;;65.25;53.00;;;;;10.46;58.76;101540.97;2073924;28;46562;-67
2023/02/21 03:58:51;;;;;;;;;68.50;55.25;;;;;10.45;58.59;101533.03;2089798;28;46479;-68
2023/02/21 03:59:51;;;;;;;;;67.25;54.50;;;;;10.45;58.53;101541.00;2091853;28;46368;-67
2023/02/21 04:00:52;;;;;;;;;70.00;56.75;;;;;10.42;58.69;101539.25;2078424;28;46688;-66
2023/02/21 04:01:53;;;;;;;;;64.80;53.80;;;;;10.41;58.48;101537.47;2085979;28;46328;-68
2023/02/21 04:02:53;;;;;;;;;68.50;54.25;;;;;10.42;58.83;101533.06;2086555;28;46263;-66
2023/02/21 04:03:54;;;;;;;;;67.00;53.50;;;;;10.41;58.70;101529.50;2094491;28;46378;-66
2023/02/21 04:04:54;;;;;;;;;68.75;56.00;;;;;10.41;58.60;101529.50;2086587;28;46630;-67
2023/02/21 04:05:55;;;;;;;;;70.00;56.00;;;;;10.42;58.49;101530.41;2078782;28;46798;-68
2023/02/21 04:06:55;;;;;;;;;66.00;54.00;;;;;10.42;58.57;101527.75;2079224;28;46215;-67
2023/02/21 04:07:55;;;;;;;;;69.50;55.75;;;;;10.40;58.65;101521.56;2078256;28;46271;-66
2023/02/21 04:08:56;;;;;;;;;70.00;57.25;;;;;10.39;58.51;101530.41;2078506;28;46859;-67
2023/02/21 04:09:56;;;;;;;;;72.50;56.75;;;;;10.38;58.40;101529.53;2079378;28;46245;-67
2023/02/21 04:10:56;;;;;;;;;69.75;57.00;;;;;10.38;58.62;101526.88;2079126;28;46031;-67
2023/02/21 04:11:57;;;;;;;;;65.25;52.75;;;;;10.37;58.58;101522.47;2095402;28;46342;-68
2023/02/21 04:12:57;;;;;;;;;66.50;54.00;;;;;10.37;58.38;101524.25;2095423;28;46356;-65
2023/02/21 04:13:58;;;;;;;;;70.00;55.50;;;;;10.37;58.53;101522.47;2077086;28;46692;-67
2023/02/21 04:14:58;;;;;;;;;70.25;56.75;;;;;10.37;58.41;101521.59;2089316;28;46998;-67
2023/02/21 04:15:58;;;;;;;;;69.50;55.00;;;;;10.35;58.33;101524.25;2085390;28;46473;-67
2023/02/21 04:16:59;;;;;;;;;70.00;55.75;;;;;10.36;58.36;101517.19;2078911;28;45483;-70
2023/02/21 04:17:59;;;;;;;;;70.50;56.25;;;;;10.34;57.87;101519.84;2076685;28;46138;-68
2023/02/21 04:18:59;;;;;;;;;70.25;55.75;;;;;10.34;58.20;101516.31;2079021;28;46326;-66
2023/02/21 04:20:00;;;;;;;;;69.00;55.75;;;;;10.33;58.20;101518.09;2079036;28;46908;-67
2023/02/21 04:21:00;;;;;;;;;70.75;56.50;;;;;10.32;58.06;101519.88;2094849;28;46789;-66
2023/02/21 04:22:00;;;;;;;;;70.50;56.50;;;;;10.31;58.21;101522.53;2086755;28;46454;-67
2023/02/21 04:23:01;;;;;;;;;68.25;55.25;;;;;10.30;58.18;101521.66;2077393;28;45837;-67
2023/02/21 04:24:01;;;;;;;;;72.00;57.50;;;;;10.31;58.03;101523.41;2079329;28;46609;-67
2023/02/21 04:25:02;;;;;;;;;73.00;57.00;;;;;10.30;57.86;101518.13;2080075;28;46849;-67
2023/02/21 04:26:02;;;;;;;;;63.75;52.75;;;;;10.28;58.07;101523.41;2096702;28;47246;-66
2023/02/21 04:27:02;;;;;;;;;70.50;55.25;;;;;10.28;58.07;101518.09;2096756;28;45455;-67
2023/02/21 04:28:03;;;;;;;;;71.50;57.00;;;;;10.28;57.94;101522.53;2080618;28;46892;-66
2023/02/21 04:29:04;;;;;;;;;72.50;58.50;;;;;10.28;57.83;101525.19;2094096;28;46507;-67
2023/02/21 04:30:05;;;;;;;;;72.25;58.00;;;;;10.27;57.72;101526.97;2087762;28;46390;-67
2023/02/21 04:31:05;;;;;;;;;71.00;55.00;;;;;10.25;57.92;101528.75;2072655;28;45123;-68
2023/02/21 04:32:05;;;;;;;;;73.00;58.50;;;;;10.25;57.68;101530.53;2089045;28;46164;-66
2023/02/21 04:33:06;;;;;;;;;72.50;57.25;;;;;10.23;57.67;101538.50;2094566;28;46453;-69
2023/02/21 04:34:06;;;;;;;;;74.25;60.75;;;;;10.22;57.91;101534.09;2080544;28;46258;-67
2023/02/21 04:35:07;;;;;;;;;74.00;58.25;;;;;10.20;57.72;101535.84;2080502;28;45978;-67
2023/02/21 04:36:07;;;;;;;;;74.75;62.00;;;;;10.18;57.82;101532.31;2078987;28;45704;-67
2023/02/21 04:37:08;;;;;;;;;71.75;59.00;;;;;10.18;57.82;101537.63;2080603;28;46405;-66
2023/02/21 04:38:08;;;;;;;;;72.25;58.00;;;;;10.14;57.70;101532.34;2095023;28;46104;-67
2023/02/21 04:39:08;;;;;;;;;74.75;59.25;;;;;10.13;58.00;101533.22;2094794;28;46224;-67
2023/02/21 04:40:09;;;;;;;;;75.50;62.50;;;;;10.10;57.84;101531.47;2077664;28;46221;-67
2023/02/21 04:41:10;;;;;;;;;67.50;53.25;;;;;10.09;57.98;101534.16;2081785;28;46163;-65
2023/02/21 04:42:10;;;;;;;;;71.00;55.75;;;;;10.07;58.06;101535.94;2084743;28;45242;-67
2023/02/21 04:43:10;;;;;;;;;71.25;56.00;;;;;10.08;58.15;101529.75;2081279;28;46166;-67
2023/02/21 04:44:11;;;;;;;;;74.00;59.00;;;;;10.07;58.11;101530.63;2087278;28;46221;-65
2023/02/21 04:45:12;;;;;;;;;77.50;64.50;;;;;10.08;58.41;101529.75;2076102;28;46552;-65
2023/02/21 04:46:15;;;;;;;;;76.50;58.25;;;;;10.07;58.21;101520.91;2078153;28;46929;-66
2023/02/21 04:47:15;;;;;;;;;70.00;55.75;;;;;10.07;58.29;101522.69;2077292;28;45704;-67
2023/02/21 04:48:16;;;;;;;;;70.50;57.75;;;;;10.05;58.17;101527.13;2079141;28;46975;-66
2023/02/21 04:49:17;;;;;;;;;76.25;63.75;;;;;10.05;58.12;101529.78;2093226;28;46376;-66
2023/02/21 04:50:18;;;;;;;;;73.00;58.25;;;;;10.02;58.29;101523.56;2092004;28;46466;-67
2023/02/21 04:51:21;;;;;;;;;72.50;57.00;;;;;10.00;58.09;101524.47;2073490;28;46587;-65
2023/02/21 04:52:22;;;;;;;;;74.25;60.75;;;;;10.01;57.93;101528.88;2078628;28;46707;-67
2023/02/21 04:53:22;;;;;;;;;71.25;57.25;;;;;9.99;57.91;101525.38;2088199;28;46339;-67
2023/02/21 04:54:22;;;;;;;;;73.50;61.50;;;;;9.98;58.19;101524.50;2077117;28;45056;-66
2023/02/21 04:55:23;;;;;;;;;73.25;58.50;;;;;9.98;57.82;101520.97;2072819;28;46287;-66
2023/02/21 04:56:26;;;;;;;;;72.25;58.00;;;;;9.98;57.87;101520.97;2074692;28;46150;-67
2023/02/21 04:57:26;;;;;;;;;74.75;61.00;;;;;9.99;57.90;101530.66;2085181;28;46551;-68
2023/02/21 04:58:27;;;;;;;;;73.75;60.25;;;;;9.99;57.95;101533.31;2084508;28;46703;-66
2023/02/21 04:59:27;;;;;;;;;73.00;58.25;;;;;9.99;58.25;101526.25;2074955;28;46558;-68
2023/02/21 05:00:27;;;;;;;;;74.75;61.50;;;;;9.98;58.17;101529.78;2077584;28;47661;-66
2023/02/21 05:01:30;;;;;;;;;76.75;63.75;;;;;9.97;58.11;101530.69;2084755;28;46313;-66
2023/02/21 05:02:30;;;;;;;;;72.50;58.75;;;;;9.98;58.11;101534.22;2080763;28;45809;-66
2023/02/21 05:03:30;;;;;;;;;75.00;63.00;;;;;9.99;57.99;101528.91;2078382;28;46613;-66
2023/02/21 05:04:31;;;;;;;;;73.00;58.00;;;;;10.00;58.21;101527.13;2075297;28;46436;-66
2023/02/21 05:05:31;;;;;;;;;70.50;57.25;;;;;10.01;58.14;101526.22;2075996;28;46501;-66
2023/02/21 05:06:31;;;;;;;;;76.00;62.50;;;;;10.02;58.21;101531.53;2078564;28;46564;-65
2023/02/21 05:07:32;;;;;;;;;76.75;61.50;;;;;10.02;58.18;101528.88;2074884;28;45829;-67
2023/02/21 05:08:32;;;;;;;;;75.75;62.75;;;;;10.04;58.34;101531.53;2077680;28;46320;-68
2023/02/21 05:09:32;;;;;;;;;78.00;62.00;;;;;10.06;58.09;101528.88;2075764;28;46043;-66
2023/02/21 05:10:33;;;;;;;;;73.25;57.50;;;;;10.06;58.05;101529.75;2077073;28;46482;-66
2023/02/21 05:11:33;;;;;;;;;76.25;64.25;;;;;10.07;58.37;101530.63;2076197;28;46697;-68
2023/02/21 05:12:36;;;;;;;;;72.75;58.75;;;;;10.09;58.46;101531.50;2075421;28;46282;-68
2023/02/21 05:13:36;;;;;;;;;73.50;62.50;;;;;10.08;58.11;101533.28;2080447;28;46301;-65
2023/02/21 05:14:38;;;;;;;;;78.50;64.25;;;;;10.07;58.32;101528.88;2081429;28;46813;-67
2023/02/21 05:15:38;;;;;;;;;74.25;61.00;;;;;10.06;58.46;101531.53;2078235;28;46815;-65
2023/02/21 05:16:38;;;;;;;;;74.75;62.75;;;;;10.03;58.33;101530.63;2074009;28;46061;-65
2023/02/21 05:17:39;;;;;;;;;76.75;65.00;;;;;10.03;58.58;101521.78;2074283;28;46431;-66
2023/02/21 05:18:43;;;;;;;;;74.00;61.75;;;;;10.03;58.29;101521.78;2073524;28;46248;-66
2023/02/21 05:19:45;;;;;;;;;71.25;58.50;;;;;10.01;58.33;101523.59;2073773;28;46370;-65
2023/02/21 05:20:46;;;;;;;;;73.00;59.00;;;;;10.00;58.32;101529.78;2074552;28;45884;-67
2023/02/21 05:21:46;;;;;;;;;74.25;60.25;;;;;9.98;58.63;101527.13;2076284;28;46648;-67
2023/02/21 05:22:47;;;;;;;;;78.00;63.75;;;;;9.98;58.88;101529.78;2081256;28;45431;-66
2023/02/21 05:23:56;;;;;;;;;80.00;68.00;;;;;9.97;58.73;101530.69;2084113;28;46728;-68
2023/02/21 05:24:57;;;;;;;;;73.25;59.25;;;;;9.95;58.75;101524.50;2078638;28;45935;-68
2023/02/21 05:25:57;;;;;;;;;75.50;63.00;;;;;9.96;58.79;101528.03;2078749;28;46608;-68
2023/02/21 05:26:58;;;;;;;;;77.50;64.75;;;;;9.96;58.88;101533.34;2075881;28;46182;-67
2023/02/21 05:27:58;;;;;;;;;78.50;66.50;;;;;9.95;59.24;101529.81;2091872;28;46241;-67
2023/02/21 05:28:59;;;;;;;;;77.50;66.00;;;;;9.95;58.67;101532.47;2087535;28;46486;-67
2023/02/21 05:29:59;;;;;;;;;76.50;64.25;;;;;9.95;58.60;101527.16;2079034;28;46305;-68
2023/02/21 05:31:00;;;;;;;;;81.00;66.50;;;;;9.95;59.01;101529.81;2075128;28;46116;-66
2023/02/21 05:32:00;;;;;;;;;77.75;62.75;;;;;9.96;59.04;101523.63;2074420;28;46873;-67
2023/02/21 05:33:00;;;;;;;;;72.25;57.50;;;;;9.96;59.24;101528.94;2073674;28;46525;-67
2023/02/21 05:34:01;;;;;;;;;75.75;61.00;;;;;9.96;59.07;101526.28;2074595;28;46874;-66
2023/02/21 05:35:02;;;;;;;;;73.75;60.75;;;;;9.96;59.13;101514.78;2076465;28;46714;-68
2023/02/21 05:36:02;;;;;;;;;72.50;58.00;;;;;9.96;59.20;101517.44;2078338;28;46507;-66
2023/02/21 05:37:02;;;;;;;;;73.75;59.75;;;;;9.95;59.08;101511.25;2074664;28;46401;-65
2023/02/21 05:38:03;;;;;;;;;75.00;60.50;;;;;9.95;59.28;101521.88;2089799;28;46549;-67
2023/02/21 05:39:05;;;;;;;;;73.75;59.50;;;;;9.95;59.12;101511.25;2091936;28;45803;-67
2023/02/21 05:40:06;;;;;;;;;72.00;58.75;;;;;9.95;59.32;101518.34;2077440;28;46048;-67
2023/02/21 05:41:06;;;;;;;;;72.50;58.00;;;;;9.96;59.30;101512.13;2077109;28;46791;-66
2023/02/21 05:42:06;;;;;;;;;70.25;57.25;;;;;9.97;59.27;101509.47;2076000;28;46651;-66
2023/02/21 05:43:07;;;;;;;;;74.50;59.75;;;;;9.97;59.18;101504.16;2066904;28;46141;-68
2023/02/21 05:44:07;;;;;;;;;67.75;56.00;;;;;9.99;59.49;101501.50;2066794;28;46190;-68
2023/02/21 05:45:08;;;;;;;;;76.75;63.00;;;;;9.99;59.08;101506.81;2056309;28;46828;-68
2023/02/21 05:46:19;;;;;;;;;76.25;63.75;;;;;9.99;59.30;101499.72;2057571;28;46632;-68
2023/02/21 05:47:19;;;;;;;;;72.00;57.75;;;;;9.99;59.34;101502.38;2067118;28;46941;-69
2023/02/21 05:48:22;;;;;;;;;77.00;63.00;;;;;9.97;59.47;101504.16;2066963;28;46441;-69
2023/02/21 05:49:23;;;;;;;;;76.50;61.50;;;;;9.98;59.30;101495.31;2064002;28;46274;-70
2023/02/21 05:50:23;;;;;;;;;71.50;58.50;;;;;9.99;59.28;101504.16;2064421;28;46109;-68
2023/02/21 05:51:24;;;;;;;;;77.75;67.00;;;;;9.98;59.31;101494.44;2067929;28;45009;-68
2023/02/21 05:52:24;;;;;;;;;76.75;63.00;;;;;9.98;59.34;101495.31;2066056;28;46778;-68
2023/02/21 05:53:25;;;;;;;;;69.00;56.25;;;;;9.99;59.60;101493.53;2064332;28;46568;-68
2023/02/21 05:54:25;;;;;;;;;78.25;67.25;;;;;9.99;59.52;101496.19;2063811;28;46352;-68
2023/02/21 05:55:26;;;;;;;;;79.00;66.00;;;;;9.98;59.31;101491.78;2065912;28;45468;-68
2023/02/21 05:56:26;;;;;;;;;74.00;58.50;;;;;9.97;59.16;101490.91;2067919;28;46723;-68
2023/02/21 05:57:26;;;;;;;;;75.50;61.50;;;;;9.97;59.19;101482.97;2064573;28;45213;-69
2023/02/21 05:58:27;;;;;;;;;74.25;60.50;;;;;9.96;59.35;101490.94;2066383;28;46141;-68
2023/02/21 05:59:27;;;;;;;;;76.50;63.00;;;;;9.96;59.38;101488.28;2069194;28;46791;-68
2023/02/21 06:00:29;;;;;;;;;74.50;60.75;;;;;9.95;59.29;101478.56;2065830;28;46569;-68
2023/02/21 06:01:29;;;;;;;;;79.00;65.75;;;;;9.92;59.12;101484.78;2066569;28;46787;-67
2023/02/21 06:02:30;;;;;;;;;72.00;58.50;;;;;9.92;59.19;101487.44;2065348;28;45619;-70
2023/02/21 06:03:30;;;;;;;;;74.50;63.00;;;;;9.91;59.09;101483.00;2066477;28;47313;-68
2023/02/21 06:04:30;;;;;;;;;75.50;63.50;;;;;9.92;59.35;101484.78;2064489;28;46181;-69
2023/02/21 06:05:31;;;;;;;;;78.50;63.75;;;;;9.92;59.16;101484.78;2065999;28;46119;-69
2023/02/21 06:06:31;;;;;;;;;75.75;62.75;;;;;9.93;59.39;101483.00;2064380;28;45679;-69
2023/02/21 06:07:32;;;;;;;;;72.75;57.75;;;;;9.91;59.14;101484.75;2065937;28;46358;-69
2023/02/21 06:08:41;;;;;;;;;68.50;55.00;;;;;9.89;59.10;101484.75;2063824;28;45835;-68
2023/02/21 06:09:41;;;;;;;;;72.75;58.25;;;;;9.89;59.06;101483.88;2067058;28;45117;-69
2023/02/21 06:10:42;;;;;;;;;76.00;61.00;;;;;9.86;59.25;101486.56;2063637;28;46040;-69
2023/02/21 06:11:42;;;;;;;;;74.75;59.00;;;;;9.85;59.27;101487.47;2069281;28;45903;-68
2023/02/21 06:12:43;;;;;;;;;71.50;57.00;;;;;9.84;59.35;101483.06;2064339;28;46723;-68
2023/02/21 06:13:43;;;;;;;;;74.50;59.25;;;;;9.84;59.29;101485.69;2066600;28;46125;-70
2023/02/21 06:14:43;;;;;;;;;74.50;62.00;;;;;9.83;59.42;101479.53;2067704;28;46613;-70
2023/02/21 06:15:43;;;;;;;;;68.25;56.25;;;;;9.83;59.47;101487.47;2082651;28;46267;-69
2023/02/21 06:16:45;;;;;;;;;73.75;60.50;;;;;9.85;59.38;101483.03;2055146;28;46288;-69
2023/02/21 06:17:45;;;;;;;;;74.00;58.50;;;;;9.87;59.46;101483.03;2055414;28;46212;-69
2023/02/21 06:18:49;;;;;;;;;76.00;61.00;;;;;9.88;59.32;101480.34;2088409;28;47283;-68
2023/02/21 06:19:50;;;;;;;;;70.00;57.25;;;;;9.88;59.29;101476.81;2088383;28;46506;-67
2023/02/21 06:20:50;;;;;;;;;77.25;64.75;;;;;9.89;59.53;101476.81;2087572;28;46228;-69
2023/02/21 06:21:50;;;;;;;;;74.50;58.00;;;;;9.90;59.51;101478.56;2091154;28;46303;-68
2023/02/21 06:22:51;;;;;;;;;60.75;48.50;;;;;9.90;59.39;101470.63;2079773;28;45998;-68
2023/02/21 06:23:51;;;;;;;;;70.50;57.00;;;;;9.90;59.35;101477.69;2083876;28;45928;-67
2023/02/21 06:24:51;;;;;;;;;74.25;61.25;;;;;9.89;59.47;101468.84;2084585;28;45129;-68
2023/02/21 06:25:52;;;;;;;;;76.75;64.50;;;;;9.88;59.28;101469.75;2084622;28;46165;-69
2023/02/21 06:26:52;;;;;;;;;70.50;56.25;;;;;9.88;59.33;101475.06;2085434;28;46234;-67
2023/02/21 06:27:52;;;;;;;;;76.50;61.50;;;;;9.89;59.11;101470.63;2083887;28;47080;-69
2023/02/21 06:28:53;;;;;;;;;69.00;56.00;;;;;9.88;59.25;101467.09;2082682;28;45691;-69
2023/02/21 06:29:53;;;;;;;;;76.50;62.00;;;;;9.88;59.18;101464.44;2090423;28;45942;-69
2023/02/21 06:30:54;;;;;;;;;74.50;60.00;;;;;9.87;58.98;101461.81;2092781;28;46559;-68
2023/02/21 06:31:56;;;;;;;;;74.25;58.25;;;;;9.87;59.35;101460.03;2083105;28;45843;-68
2023/02/21 06:32:57;;;;;;;;;77.50;65.00;;;;;9.87;59.16;101464.47;2084941;28;46541;-68
2023/02/21 06:33:58;;;;;;;;;73.00;58.50;;;;;9.85;59.28;101466.25;2083161;28;46769;-68
2023/02/21 06:34:58;;;;;;;;;74.75;59.75;;;;;9.84;58.97;101465.38;2086529;28;46862;-67
2023/02/21 06:36:06;;;;;;;;;69.25;56.75;;;;;9.83;59.17;101462.75;2088458;28;45920;-68
2023/02/21 06:37:06;;;;;;;;;72.75;58.00;;;;;9.83;59.14;101457.44;2083636;28;45060;-67
2023/02/21 06:38:06;;;;;;;;;79.25;65.75;;;;;9.82;58.95;101463.63;2083910;28;46259;-68
2023/02/21 06:39:09;;;;;;;;;79.00;66.50;;;;;9.81;58.81;101454.78;2080793;28;46098;-68
2023/02/21 06:40:10;;;;;;;;;74.75;61.00;;;;;9.81;58.78;101459.22;2083981;28;47136;-68
2023/02/21 06:41:14;;;;;;;;;77.00;65.75;;;;;9.79;58.50;101448.63;2082093;28;45542;-68
2023/02/21 06:42:16;;;;;;;;;78.25;66.00;;;;;9.80;58.96;101449.50;2084365;28;45716;-68
2023/02/21 06:43:16;;;;;;;;;77.50;64.00;;;;;9.78;58.74;101446.84;2080739;28;45329;-69
2023/02/21 06:44:16;;;;;;;;;68.75;53.50;;;;;9.79;58.71;101455.72;2083734;28;46176;-69
2023/02/21 06:45:17;;;;;;;;;72.50;58.50;;;;;9.79;58.73;101455.72;2080876;28;46446;-68
2023/02/21 06:46:20;;;;;;;;;66.00;53.75;;;;;9.78;58.73;101448.63;2088852;28;46495;-69
2023/02/21 06:47:20;;;;;;;;;77.75;61.50;;;;;9.78;58.64;101443.31;2089508;28;47221;-68
2023/02/21 06:48:20;;;;;;;;;75.75;63.50;;;;;9.77;58.87;101441.56;2077580;28;46021;-68
2023/02/21 06:49:21;;;;;;;;;76.25;64.25;;;;;9.78;58.59;101456.56;2074738;28;46166;-68
2023/02/21 06:50:21;;;;;;;;;77.75;66.00;;;;;9.79;58.67;101461.88;2075735;28;46294;-69
2023/02/21 06:51:27;;;;;;;;;77.75;67.50;;;;;9.80;58.74;101446.84;2076232;28;46470;-67
2023/02/21 06:52:30;;;;;;;;;77.00;65.50;;;;;9.79;58.81;101448.63;2077747;28;46801;-69
2023/02/21 06:53:30;;;;;;;;;64.25;50.00;;;;;9.78;58.75;101446.84;2076800;28;46447;-67
2023/02/21 06:54:30;;;;;;;;;77.75;65.75;;;;;9.78;58.72;101444.19;2073974;28;46148;-68
2023/02/21 06:55:31;;;;;;;;;76.75;63.50;;;;;9.77;58.97;101442.44;2077418;28;46678;-68
2023/02/21 06:56:31;;;;;;;;;77.25;62.75;;;;;9.76;58.94;101443.31;2074692;28;46225;-67
2023/02/21 06:57:31;;;;;;;;;80.50;69.00;;;;;9.75;58.85;101436.28;2074060;28;46375;-67
2023/02/21 06:58:32;;;;;;;;;79.25;69.50;;;;;9.76;58.89;101443.31;2075516;28;45577;-67
2023/02/21 06:59:32;;;;;;;;;76.75;61.25;;;;;9.75;59.15;101438.91;2074292;28;46692;-67
2023/02/21 07:00:32;;;;;;;;;80.00;62.75;;;;;9.73;58.92;101446.00;2092182;28;45069;-67
2023/02/21 07:01:33;;;;;;;;;79.25;67.50;;;;;9.73;59.31;101451.31;2093799;28;46621;-69
2023/02/21 07:02:33;;;;;;;;;75.25;60.25;;;;;9.71;58.98;101448.66;2072223;28;47170;-68
2023/02/21 07:03:38;;;;;;;;;78.50;67.50;;;;;9.71;58.83;101448.66;2071847;28;46138;-70